Time;durP1;ratioP1;P1;durP2;ratioP2;P2;SDS_P1;SDS_P2;PMS_P1;PMS_P2;Temp;Humidity;BMP_temperature;BMP_pressure;BME280_temperature;BME280_humidity;BME280_pressure;Samples;Min_cycle;Max_cycle;Signal;HPM_P1;HPM_P2
2021/09/06 00:00:51;;;;;;;8.65;1.95;;;;;;;24.71;52.62;100808.78;5029436;28;20048;-74
2021/09/06 00:03:19;;;;;;;6.75;2.10;;;;;;;24.71;52.81;100814.19;5029429;28;20047;-76
2021/09/06 00:05:49;;;;;;;3.90;1.58;;;;;;;24.70;52.73;100812.44;5029393;28;20042;-76
2021/09/06 00:08:16;;;;;;;12.38;2.30;;;;;;;24.68;52.97;100805.34;5028941;28;20099;-77
2021/09/06 00:10:46;;;;;;;8.30;2.40;;;;;;;24.67;53.14;100807.16;5024013;28;20094;-77
2021/09/06 00:13:17;;;;;;;6.03;2.17;;;;;;;24.68;53.19;100813.44;5042338;28;20034;-76
2021/09/06 00:15:46;;;;;;;9.63;1.98;;;;;;;24.67;53.87;100819.78;5033178;28;20037;-77
2021/09/06 00:18:14;;;;;;;9.40;2.45;;;;;;;24.63;54.19;100822.59;5035000;28;20076;-77
2021/09/06 00:20:44;;;;;;;12.25;2.75;;;;;;;24.63;54.08;100822.59;5033149;28;20507;-76
2021/09/06 00:23:12;;;;;;;8.30;1.95;;;;;;;24.63;54.20;100836.09;5014380;28;20104;-76
2021/09/06 00:25:41;;;;;;;8.85;2.20;;;;;;;24.64;54.24;100831.59;5035098;28;20041;-75
2021/09/06 00:28:10;;;;;;;4.50;1.92;;;;;;;24.67;54.16;100833.28;5041367;28;20049;-75
2021/09/06 00:30:38;;;;;;;10.18;2.13;;;;;;;24.64;54.13;100826.19;5034366;28;20041;-75
2021/09/06 00:33:06;;;;;;;6.57;2.20;;;;;;;24.61;54.00;100819.06;5033101;28;20068;-76
2021/09/06 00:35:33;;;;;;;9.13;2.80;;;;;;;24.61;54.14;100820.94;5033825;28;20042;-75
2021/09/06 00:38:01;;;;;;;6.70;2.33;;;;;;;24.60;54.01;100833.53;5038746;28;20504;-74
2021/09/06 00:40:38;;;;;;;9.65;2.50;;;;;;;24.59;53.83;100820.97;5033725;28;20452;-76
2021/09/06 00:43:06;;;;;;;13.10;2.05;;;;;;;24.62;54.01;100830.75;5034045;28;20044;-75
2021/09/06 00:45:33;;;;;;;5.15;1.95;;;;;;;24.65;53.73;100822.53;5033844;28;20045;-75
2021/09/06 00:48:00;;;;;;;7.28;2.20;;;;;;;24.64;53.71;100828.88;5033893;28;20493;-76
2021/09/06 00:50:28;;;;;;;10.32;2.38;;;;;;;24.63;53.50;100822.59;5033381;28;20044;-77
2021/09/06 00:52:55;;;;;;;8.68;2.58;;;;;;;24.66;53.50;100831.53;5033856;28;20038;-76
2021/09/06 00:55:23;;;;;;;8.82;2.42;;;;;;;24.59;53.91;100820.97;5034091;28;20037;-76
2021/09/06 00:57:53;;;;;;;6.78;2.20;;;;;;;24.61;54.00;100819.06;5032655;28;20395;-76
2021/09/06 01:00:21;;;;;;;10.77;2.50;;;;;;;24.61;54.22;100804.72;5033499;28;20037;-74
2021/09/06 01:02:49;;;;;;;10.32;3.38;;;;;;;24.61;54.33;100820.94;5033929;28;20038;-76
2021/09/06 01:05:16;;;;;;;8.85;2.42;;;;;;;24.59;54.52;100822.81;5033170;28;20093;-76
2021/09/06 01:07:44;;;;;;;10.25;2.22;;;;;;;24.59;54.34;100815.59;5033517;28;20489;-75
2021/09/06 01:10:14;;;;;;;9.57;1.92;;;;;;;24.58;54.65;100818.34;5033383;28;20053;-75
2021/09/06 01:12:42;;;;;;;8.40;2.33;;;;;;;24.58;54.50;100811.13;5033359;28;20516;-76
2021/09/06 01:15:12;;;;;;;9.60;2.75;;;;;;;24.58;54.67;100800.31;5033395;28;20037;-75
2021/09/06 01:17:40;;;;;;;11.73;2.17;;;;;;;24.58;54.90;100802.13;5033172;28;20046;-75
2021/09/06 01:20:10;;;;;;;6.25;2.20;;;;;;;24.59;54.92;100803.91;5033357;28;20049;-68
2021/09/06 01:22:38;;;;;;;9.52;2.13;;;;;;;24.56;55.09;100804.91;5033683;28;20041;-75
2021/09/06 01:25:07;;;;;;;6.45;1.67;;;;;;;24.54;54.96;100795.13;5032372;28;20052;-75
2021/09/06 01:27:36;;;;;;;6.72;2.40;;;;;;;24.53;55.07;100794.25;5033010;28;20033;-76
2021/09/06 01:30:05;;;;;;;6.93;2.35;;;;;;;24.52;55.22;100792.47;5034055;28;20037;-68
2021/09/06 01:32:32;;;;;;;11.65;2.65;;;;;;;24.53;55.42;100793.34;5031943;28;20464;-76
2021/09/06 01:35:00;;;;;;;7.40;3.20;;;;;;;24.54;55.85;100801.41;5033194;28;20498;-76
2021/09/06 01:37:27;;;;;;;10.10;2.40;;;;;;;24.56;55.85;100793.22;5038725;28;20041;-76
2021/09/06 01:39:55;;;;;;;10.15;2.58;;;;;;;24.55;55.88;100786.06;5032645;28;20413;-75
2021/09/06 01:42:22;;;;;;;8.82;2.50;;;;;;;24.53;56.21;100786.16;5033104;28;20040;-75
2021/09/06 01:44:51;;;;;;;15.52;2.72;;;;;;;24.53;56.12;100778.03;5032938;28;20044;-76
2021/09/06 01:47:26;;;;;;;10.88;3.17;;;;;;;24.55;56.35;100795.03;5032970;28;20045;-77
2021/09/06 01:50:12;;;;;;;9.13;3.10;;;;;;;24.55;56.23;100792.34;5009463;28;20531;-76
2021/09/06 01:52:40;;;;;;;8.32;3.05;;;;;;;24.50;56.42;100786.25;5032642;28;20053;-75
2021/09/06 01:55:08;;;;;;;11.45;2.78;;;;;;;24.51;56.63;100787.13;5032596;28;20034;-76
2021/09/06 01:57:35;;;;;;;8.10;2.60;;;;;;;24.45;56.76;100785.56;5032561;28;20037;-75
2021/09/06 02:00:06;;;;;;;11.60;2.70;;;;;;;24.43;57.25;100784.75;5032382;28;20050;-75
2021/09/06 02:02:35;;;;;;;10.85;2.90;;;;;;;24.45;57.22;100795.50;5032708;28;20121;-76
2021/09/06 02:05:03;;;;;;;10.02;2.72;;;;;;;24.45;57.12;100801.78;5032244;28;20053;-76
2021/09/06 02:07:30;;;;;;;12.23;2.90;;;;;;;24.44;57.22;100793.72;5028799;28;20049;-76
2021/09/06 02:09:58;;;;;;;13.13;3.58;;;;;;;24.43;57.34;100792.84;5041276;28;20034;-76
2021/09/06 02:12:28;;;;;;;8.88;2.78;;;;;;;24.44;57.19;100793.72;5013564;28;20500;-77
2021/09/06 02:14:55;;;;;;;7.78;2.90;;;;;;;24.44;57.19;100791.03;5038503;28;20041;-77
2021/09/06 02:17:24;;;;;;;12.07;3.40;;;;;;;24.43;57.09;100809.03;5032209;28;20041;-76
2021/09/06 02:19:51;;;;;;;7.78;2.92;;;;;;;24.40;57.27;100811.88;5033153;28;20034;-75
2021/09/06 02:22:19;;;;;;;11.60;3.67;;;;;;;24.38;57.49;100813.75;5032064;28;20518;-75
2021/09/06 02:24:47;;;;;;;9.95;3.35;;;;;;;24.42;57.29;100807.28;5027178;28;20045;-76
2021/09/06 02:27:14;;;;;;;11.40;3.13;;;;;;;24.44;57.20;100801.81;5029988;28;20053;-77
2021/09/06 02:30:00;;;;;;;9.45;3.08;;;;;;;24.47;56.87;100802.59;5025952;28;20181;-76
2021/09/06 02:32:29;;;;;;;9.50;3.17;;;;;;;24.48;56.96;100809.72;5031729;28;20401;-76
2021/09/06 02:34:56;;;;;;;11.85;4.28;;;;;;;24.45;57.00;100804.47;5031785;28;20041;-76
2021/09/06 02:37:24;;;;;;;10.50;2.92;;;;;;;24.43;57.08;100806.34;5022323;28;20539;-75
2021/09/06 02:39:54;;;;;;;9.73;3.20;;;;;;;24.40;57.04;100803.78;5042723;28;20045;-76
2021/09/06 02:42:21;;;;;;;8.52;3.00;;;;;;;24.42;57.01;100807.28;5051519;28;20048;-77
2021/09/06 02:44:49;;;;;;;8.80;2.72;;;;;;;24.39;57.05;100804.72;5051392;28;20044;-76
2021/09/06 02:47:16;;;;;;;14.15;2.95;;;;;;;24.36;57.16;100791.34;5051125;28;20056;-75
2021/09/06 02:49:45;;;;;;;7.60;2.58;;;;;;;24.35;57.30;100794.13;5050532;28;20392;-77
2021/09/06 02:52:12;;;;;;;10.88;2.85;;;;;;;24.34;57.27;100795.94;5051876;28;20049;-77
2021/09/06 02:54:40;;;;;;;11.57;3.58;;;;;;;24.34;57.37;100801.34;5051067;28;20040;-75
2021/09/06 02:57:07;;;;;;;8.13;3.10;;;;;;;24.33;57.17;100796.00;5057139;28;20044;-76
2021/09/06 02:59:36;;;;;;;13.02;3.45;;;;;;;24.30;57.17;100796.97;5056080;28;20044;-76
2021/09/06 03:02:06;;;;;;;13.57;4.13;;;;;;;24.30;57.28;100801.50;5048477;28;20582;-76
2021/09/06 03:04:33;;;;;;;12.80;4.32;;;;;;;24.27;57.50;100797.13;5051208;28;20048;-76
2021/09/06 03:07:02;;;;;;;8.48;3.13;;;;;;;24.30;57.41;100791.59;5051408;28;20047;-75
2021/09/06 03:09:29;;;;;;;12.50;3.47;;;;;;;24.31;57.15;100798.75;5051013;28;20054;-75
2021/09/06 03:11:57;;;;;;;12.90;3.50;;;;;;;24.28;57.43;100793.50;5050863;28;20512;-75
2021/09/06 03:14:24;;;;;;;10.68;3.17;;;;;;;24.29;57.29;100803.31;5050598;28;20412;-75
2021/09/06 03:16:51;;;;;;;13.10;4.18;;;;;;;24.29;57.20;100807.84;5050896;28;20063;-76
2021/09/06 03:19:20;;;;;;;8.32;3.28;;;;;;;24.28;57.23;100806.09;5050704;28;20357;-75
2021/09/06 03:21:47;;;;;;;14.55;3.70;;;;;;;24.27;57.34;100802.53;5051009;28;20037;-75
2021/09/06 03:24:16;;;;;;;9.55;3.10;;;;;;;24.30;57.29;100807.78;5050740;28;20048;-75
2021/09/06 03:26:44;;;;;;;12.35;3.58;;;;;;;24.27;57.58;100802.53;5048576;28;20033;-74
2021/09/06 03:29:13;;;;;;;9.02;3.30;;;;;;;24.30;57.48;100806.91;5050946;28;20033;-76
2021/09/06 03:31:41;;;;;;;11.60;3.47;;;;;;;24.32;57.01;100814.00;5050611;28;20044;-75
2021/09/06 03:34:08;;;;;;;11.60;3.25;;;;;;;24.33;56.87;100813.06;5051056;28;20056;-76
2021/09/06 03:36:54;;;;;;;9.07;3.15;;;;;;;24.34;56.68;100817.53;5050925;28;20079;-74
2021/09/06 03:39:33;;;;;;;12.48;4.05;;;;;;;24.34;56.83;100822.03;5046658;28;20429;-75
2021/09/06 03:42:00;;;;;;;14.18;3.72;;;;;;;24.35;56.80;100824.66;5050865;28;20481;-75
2021/09/06 03:44:27;;;;;;;10.77;2.92;;;;;;;24.36;56.60;100837.22;5047031;28;20044;-76
2021/09/06 03:47:13;;;;;;;13.13;3.13;;;;;;;24.36;56.08;100833.63;5050646;28;20162;-76
2021/09/06 03:49:59;;;;;;;14.00;3.78;;;;;;;24.38;55.77;100837.16;5041359;28;20092;-76
2021/09/06 03:52:26;;;;;;;8.57;2.90;;;;;;;24.38;55.47;100842.56;5030141;28;20041;-75
2021/09/06 03:54:55;;;;;;;15.40;3.10;;;;;;;24.40;55.33;100848.78;5030674;28;20049;-75
2021/09/06 03:57:23;;;;;;;12.75;3.55;;;;;;;24.38;54.96;100840.75;5030809;28;20048;-76
2021/09/06 03:59:50;;;;;;;11.27;3.53;;;;;;;24.38;55.07;100846.16;5031282;28;20049;-76
2021/09/06 04:02:30;;;;;;;10.20;2.88;;;;;;;24.38;55.29;100854.25;5029863;28;20104;-77
2021/09/06 04:04:59;;;;;;;14.10;3.03;;;;;;;24.37;55.25;100843.50;5030500;28;20407;-76
2021/09/06 04:07:27;;;;;;;9.85;3.10;;;;;;;24.40;55.27;100840.69;5029750;28;20057;-76
2021/09/06 04:09:56;;;;;;;15.07;3.75;;;;;;;24.47;55.28;100842.22;5030170;28;20103;-77
2021/09/06 04:12:23;;;;;;;14.50;3.38;;;;;;;24.56;55.05;100848.09;5027478;28;20100;-76
2021/09/06 04:14:51;;;;;;;12.38;3.42;;;;;;;24.67;54.88;100847.69;5042779;28;20501;-75
2021/09/06 04:17:19;;;;;;;12.52;3.55;;;;;;;24.74;54.75;100845.59;5027436;28;20084;-76
2021/09/06 04:19:46;;;;;;;9.48;3.20;;;;;;;24.76;54.64;100838.28;5030311;28;20042;-76
2021/09/06 04:22:14;;;;;;;13.85;3.28;;;;;;;24.75;54.68;100845.50;5024374;28;20736;-77
2021/09/06 04:24:41;;;;;;;11.18;3.50;;;;;;;24.74;54.90;100845.59;5030241;28;20046;-75
2021/09/06 04:27:10;;;;;;;9.65;3.40;;;;;;;24.71;55.13;100843.88;5031129;28;20037;-75
2021/09/06 04:29:37;;;;;;;12.38;3.88;;;;;;;24.68;55.30;100846.69;5028968;28;20497;-77
2021/09/06 04:32:06;;;;;;;11.80;3.35;;;;;;;24.68;55.39;100843.16;5014436;28;20046;-76
2021/09/06 04:34:33;;;;;;;7.50;3.22;;;;;;;24.70;55.22;100836.72;5010229;28;20042;-75
2021/09/06 04:37:02;;;;;;;9.77;2.80;;;;;;;24.85;54.81;100840.63;5010751;28;20038;-76
2021/09/06 04:39:33;;;;;;;7.82;2.58;;;;;;;24.98;53.83;100841.88;5010146;28;20415;-76
2021/09/06 04:42:01;;;;;;;9.27;3.00;;;;;;;25.09;53.38;100842.31;5009808;28;20042;-75
2021/09/06 04:44:30;;;;;;;14.13;2.60;;;;;;;25.12;52.83;100830.50;5010619;28;20042;-76
2021/09/06 04:46:57;;;;;;;10.98;2.72;;;;;;;25.13;53.22;100851.16;5010741;28;20116;-75
2021/09/06 04:49:25;;;;;;;7.97;2.00;;;;;;;25.21;53.21;100847.16;5010590;28;20038;-72
2021/09/06 04:52:12;;;;;;;15.02;3.20;;;;;;;25.26;53.64;100839.75;5020699;28;20057;-76
2021/09/06 04:54:42;;;;;;;8.23;2.40;;;;;;;25.22;53.76;100830.00;5029755;28;20092;-77
2021/09/06 04:57:09;;;;;;;13.13;2.30;;;;;;;25.19;53.65;100834.69;5028075;28;20128;-76
2021/09/06 04:59:38;;;;;;;6.47;2.55;;;;;;;25.21;53.14;100839.06;5029521;28;20041;-75
2021/09/06 05:02:05;;;;;;;8.18;2.38;;;;;;;25.41;52.88;100838.19;5037818;28;20041;-77
2021/09/06 05:04:37;;;;;;;12.43;2.83;;;;;;;25.50;52.25;100858.53;5031955;28;20661;-73
2021/09/06 05:07:05;;;;;;;7.70;2.40;;;;;;;25.49;52.08;100862.19;5021260;28;20705;-76
2021/09/06 05:09:32;;;;;;;10.85;2.70;;;;;;;25.61;51.86;100862.53;5012710;28;20041;-75
2021/09/06 05:12:00;;;;;;;9.25;2.40;;;;;;;25.79;51.78;100871.69;5016408;28;20057;-76
2021/09/06 05:14:28;;;;;;;8.77;2.55;;;;;;;25.85;51.44;100879.50;5029013;28;20049;-76
2021/09/06 05:16:57;;;;;;;8.45;2.65;;;;;;;25.86;51.65;100888.50;5025653;28;20034;-75
2021/09/06 05:19:24;;;;;;;13.65;3.30;;;;;;;25.73;51.28;100886.31;5025035;28;20048;-75
2021/09/06 05:21:51;;;;;;;9.40;3.15;;;;;;;25.70;51.50;100883.78;5028425;28;20065;-75
2021/09/06 05:24:19;;;;;;;13.57;2.63;;;;;;;25.62;51.45;100882.34;5024235;28;20516;-76
2021/09/06 05:26:46;;;;;;;15.45;3.67;;;;;;;25.61;51.83;100876.06;5027714;28;20056;-75
2021/09/06 05:29:14;;;;;;;13.85;2.80;;;;;;;25.62;52.02;100883.25;5028494;28;20037;-75
2021/09/06 05:31:41;;;;;;;15.88;2.70;;;;;;;25.69;51.89;100879.31;5027247;28;20038;-74
2021/09/06 05:34:10;;;;;;;12.35;3.83;;;;;;;25.78;51.84;100878.91;5024814;28;20502;-75
2021/09/06 05:36:38;;;;;;;7.18;2.42;;;;;;;26.04;51.61;100875.00;5018011;28;20072;-74
2021/09/06 05:39:05;;;;;;;12.43;3.03;;;;;;;26.45;50.51;100872.19;5027250;28;20045;-75
2021/09/06 05:41:33;;;;;;;11.05;2.83;;;;;;;26.73;49.92;100878.00;5027538;28;20516;-75
2021/09/06 05:44:04;;;;;;;11.70;3.00;;;;;;;26.63;49.87;100852.34;5022448;28;20056;-76
2021/09/06 05:46:31;;;;;;;8.60;3.15;;;;;;;26.57;49.94;100863.47;5026859;28;20038;-75
2021/09/06 05:48:59;;;;;;;11.45;2.88;;;;;;;26.48;50.33;100862.09;5022697;28;20041;-75
2021/09/06 05:51:30;;;;;;;7.97;3.10;;;;;;;26.52;49.92;100858.25;5028254;28;20057;-76
2021/09/06 05:53:58;;;;;;;13.68;3.30;;;;;;;26.79;49.77;100855.16;5019378;28;20065;-75
2021/09/06 05:56:25;;;;;;;16.67;3.75;;;;;;;27.23;49.13;100855.66;5016573;28;20460;-75
2021/09/06 05:58:53;;;;;;;8.63;2.72;;;;;;;27.62;48.58;100863.56;5028175;28;20049;-76
2021/09/06 06:01:20;;;;;;;9.18;3.00;;;;;;;27.88;47.90;100859.44;5029343;28;20044;-77
2021/09/06 06:03:48;;;;;;;12.90;3.00;;;;;;;28.18;47.11;100862.31;5023115;28;20352;-77
2021/09/06 06:06:30;;;;;;;11.52;2.95;;;;;;;28.00;46.97;100843.34;5027451;28;20612;-76
2021/09/06 06:08:57;;;;;;;11.70;3.40;;;;;;;27.82;47.20;100851.63;5022044;28;20382;-76
2021/09/06 06:11:24;;;;;;;9.45;3.00;;;;;;;27.51;47.42;100860.47;5021623;28;20501;-76
2021/09/06 06:13:52;;;;;;;13.23;3.63;;;;;;;27.19;47.72;100860.34;5027675;28;20038;-76
2021/09/06 06:16:19;;;;;;;11.70;3.70;;;;;;;27.05;47.65;100868.28;5028808;28;20046;-76
2021/09/06 06:18:47;;;;;;;13.18;3.50;;;;;;;27.38;47.42;100868.38;5027675;28;20489;-77
2021/09/06 06:21:15;;;;;;;9.35;3.17;;;;;;;27.94;46.52;100880.81;5027732;28;20045;-76
2021/09/06 06:23:43;;;;;;;11.75;3.40;;;;;;;28.30;45.86;100884.22;5013205;28;20069;-78
2021/09/06 06:26:11;;;;;;;11.27;3.10;;;;;;;28.68;45.47;100890.22;5029118;28;20049;-76
2021/09/06 06:28:41;;;;;;;10.10;3.47;;;;;;;28.82;45.26;100898.47;5026982;28;20041;-75
2021/09/06 06:31:09;;;;;;;12.27;3.30;;;;;;;28.68;45.33;100898.38;5028815;28;20039;-76
2021/09/06 06:33:37;;;;;;;11.32;3.53;;;;;;;28.28;45.54;100894.31;5027065;28;20088;-77
2021/09/06 06:36:06;;;;;;;17.90;3.92;;;;;;;28.11;45.95;100903.34;5025357;28;20050;-76
2021/09/06 06:38:35;;;;;;;17.17;3.55;;;;;;;28.28;46.12;100910.63;4998601;28;20131;-77
2021/09/06 06:41:05;;;;;;;11.82;3.17;;;;;;;28.68;45.43;100898.38;5028380;28;20432;-76
2021/09/06 06:43:32;;;;;;;13.48;3.92;;;;;;;28.91;44.89;100905.22;5025326;28;20034;-75
2021/09/06 06:45:59;;;;;;;11.90;3.40;;;;;;;28.90;44.64;100895.31;5028359;28;20494;-78
2021/09/06 06:48:27;;;;;;;8.85;3.47;;;;;;;28.92;44.62;100906.97;5020260;28;20049;-75
2021/09/06 06:50:54;;;;;;;14.80;4.35;;;;;;;29.05;44.46;100907.13;5010294;28;20049;-74
2021/09/06 06:53:23;;;;;;;11.73;3.72;;;;;;;29.02;44.49;100910.03;5029910;28;20037;-76
2021/09/06 06:55:50;;;;;;;10.73;3.55;;;;;;;28.99;44.06;100904.78;5011572;28;20046;-76
2021/09/06 06:58:29;;;;;;;13.40;3.85;;;;;;;28.77;44.18;100916.88;5034081;28;20048;-76
2021/09/06 07:00:57;;;;;;;17.67;3.65;;;;;;;28.47;44.87;100907.75;5023475;28;20091;-76
2021/09/06 07:03:24;;;;;;;15.05;4.03;;;;;;;28.25;44.99;100912.59;5026584;28;20038;-76
2021/09/06 07:05:51;;;;;;;15.13;4.13;;;;;;;28.01;45.32;100931.09;5020657;28;20042;-76
2021/09/06 07:08:19;;;;;;;10.10;3.60;;;;;;;27.93;45.50;100934.22;5028052;28;20382;-76
2021/09/06 07:10:46;;;;;;;10.57;3.92;;;;;;;28.05;45.35;100943.53;5019491;28;20041;-76
2021/09/06 07:13:14;;;;;;;16.33;4.18;;;;;;;28.15;45.09;100923.13;5022427;28;20052;-76
2021/09/06 07:15:43;;;;;;;8.68;3.55;;;;;;;28.30;44.69;100918.66;5025840;28;20119;-69
2021/09/06 07:18:10;;;;;;;13.82;3.88;;;;;;;28.61;43.92;100931.44;5023341;28;20494;-76
2021/09/06 07:20:38;;;;;;;10.20;3.55;;;;;;;28.88;43.67;100924.44;5017506;28;20053;-76
2021/09/06 07:23:05;;;;;;;11.10;4.38;;;;;;;29.00;43.57;100917.41;5020227;28;20056;-75
2021/09/06 07:25:34;;;;;;;11.88;4.55;;;;;;;28.82;43.85;100916.63;5025812;28;20041;-76
2021/09/06 07:28:02;;;;;;;9.60;3.53;;;;;;;28.82;43.92;100922.06;5027651;28;20060;-75
2021/09/06 07:30:30;;;;;;;10.95;4.32;;;;;;;28.71;44.30;100919.06;5025415;28;20041;-74
2021/09/06 07:33:00;;;;;;;9.52;3.60;;;;;;;28.76;44.46;100916.97;5027329;28;20032;-76
2021/09/06 07:35:28;;;;;;;13.02;4.05;;;;;;;28.61;44.68;100932.31;5026075;28;20037;-77
2021/09/06 07:37:56;;;;;;;12.10;3.83;;;;;;;28.56;44.87;100928.94;5020255;28;20056;-76
2021/09/06 07:40:23;;;;;;;9.07;3.45;;;;;;;28.53;44.74;100932.72;5017603;28;20042;-75
2021/09/06 07:42:51;;;;;;;11.05;3.85;;;;;;;28.49;45.16;100935.69;5026148;28;20571;-77
2021/09/06 07:45:18;;;;;;;18.00;4.60;;;;;;;28.67;44.91;100922.91;5026339;28;20053;-76
2021/09/06 07:47:46;;;;;;;18.10;4.18;;;;;;;28.89;44.74;100942.50;5025646;28;20034;-76
2021/09/06 07:50:18;;;;;;;16.25;5.10;;;;;;;29.43;43.96;100941.13;5026961;28;20048;-75
2021/09/06 07:52:46;;;;;;;12.60;3.90;;;;;;;29.23;44.10;100942.28;5026115;28;20497;-76
2021/09/06 07:55:15;;;;;;;14.32;4.93;;;;;;;29.19;44.21;100943.44;5027596;28;20046;-76
2021/09/06 07:57:42;;;;;;;11.23;3.75;;;;;;;29.45;43.90;100952.81;5025994;28;20042;-75
2021/09/06 08:00:11;;;;;;;10.63;3.85;;;;;;;29.62;43.61;100947.22;5027248;28;20401;-76
2021/09/06 08:02:41;;;;;;;14.63;4.38;;;;;;;29.59;43.48;100961.03;5023502;28;20041;-76
2021/09/06 08:05:11;;;;;;;12.82;3.95;;;;;;;29.27;44.10;100954.75;5027457;28;20049;-75
2021/09/06 08:07:39;;;;;;;16.98;4.45;;;;;;;29.32;43.95;100962.63;5025677;28;20582;-76
2021/09/06 08:10:07;;;;;;;14.77;3.95;;;;;;;29.16;44.24;100978.09;5027407;28;20048;-75
2021/09/06 08:12:36;;;;;;;11.00;4.03;;;;;;;29.24;44.07;100973.09;5018237;28;20042;-75
2021/09/06 08:15:04;;;;;;;13.30;4.40;;;;;;;29.12;43.53;100966.53;5020689;28;20119;-75
2021/09/06 08:17:34;;;;;;;12.05;4.22;;;;;;;29.00;43.68;100982.66;5025197;28;20060;-76
2021/09/06 08:20:01;;;;;;;14.95;4.18;;;;;;;28.89;43.41;100975.09;5020968;28;22747;-75
2021/09/06 08:22:28;;;;;;;13.77;4.53;;;;;;;28.68;43.69;100968.16;5026198;28;20042;-75
2021/09/06 08:24:58;;;;;;;15.70;5.15;;;;;;;28.69;43.89;100967.16;5020627;28;20042;-76
2021/09/06 08:27:44;;;;;;;12.30;3.95;;;;;;;28.69;43.91;100973.47;5025133;28;20060;-73
2021/09/06 08:30:14;;;;;;;13.35;4.65;;;;;;;28.59;43.94;100961.41;5026672;28;20049;-76
2021/09/06 08:32:44;;;;;;;12.68;4.32;;;;;;;28.47;44.08;100956.66;5025126;28;20045;-76
2021/09/06 08:35:13;;;;;;;14.05;4.70;;;;;;;28.71;44.24;100954.38;5028724;28;20103;-69
2021/09/06 08:37:41;;;;;;;11.23;4.43;;;;;;;28.79;44.01;100954.88;5028876;28;20037;-76
2021/09/06 08:40:12;;;;;;;13.25;4.22;;;;;;;28.76;44.09;100949.59;5025584;28;20041;-75
2021/09/06 08:42:41;;;;;;;9.38;4.05;;;;;;;28.84;44.19;100953.63;5025354;28;20053;-75
2021/09/06 08:45:10;;;;;;;11.15;4.18;;;;;;;29.12;44.04;100960.19;5038339;28;20044;-75
2021/09/06 08:47:38;;;;;;;9.73;3.78;;;;;;;29.58;43.65;100952.94;5021868;28;20042;-75
2021/09/06 08:50:08;;;;;;;10.68;3.38;;;;;;;29.72;43.00;100955.72;5024102;28;20041;-75
2021/09/06 08:52:36;;;;;;;11.10;3.72;;;;;;;29.81;42.74;100949.69;5029162;28;20037;-76
2021/09/06 08:55:04;;;;;;;11.20;3.72;;;;;;;29.84;42.54;100960.41;5023886;28;20520;-75
2021/09/06 08:57:33;;;;;;;11.57;3.80;;;;;;;30.01;41.94;100945.78;5029181;28;20026;-75
2021/09/06 09:00:04;;;;;;;8.05;3.85;;;;;;;29.99;41.95;100959.50;5023887;28;20061;-74
2021/09/06 09:02:34;;;;;;;12.60;3.97;;;;;;;30.03;41.95;100957.44;5028511;28;20049;-76
2021/09/06 09:05:03;;;;;;;9.63;3.95;;;;;;;30.23;41.85;100967.97;5024104;28;20056;-75
2021/09/06 09:07:32;;;;;;;11.95;4.18;;;;;;;30.25;41.29;100959.72;5029101;28;20402;-75
2021/09/06 09:09:59;;;;;;;8.63;3.83;;;;;;;30.03;41.42;100969.22;5023029;28;20040;-76
2021/09/06 09:12:29;;;;;;;9.77;3.90;;;;;;;30.06;41.49;100968.16;5029363;28;20037;-75
2021/09/06 09:15:00;;;;;;;8.20;3.33;;;;;;;29.84;41.26;100951.34;5022798;28;20041;-75
2021/09/06 09:17:28;;;;;;;11.13;4.25;;;;;;;29.86;40.95;100963.91;5028800;28;20038;-75
2021/09/06 09:20:01;;;;;;;11.10;4.32;;;;;;;29.86;40.89;100955.75;5029925;28;20571;-75
2021/09/06 09:22:33;;;;;;;9.45;4.35;;;;;;;29.76;41.45;100956.38;5028613;28;20034;-75
2021/09/06 09:25:02;;;;;;;9.85;3.97;;;;;;;29.68;41.62;100965.03;5019553;28;20030;-75
2021/09/06 09:27:34;;;;;;;13.52;4.53;;;;;;;29.77;42.04;100959.03;5025898;28;20045;-76
2021/09/06 09:30:04;;;;;;;7.70;3.70;;;;;;;29.95;41.76;100959.75;5023746;28;20100;-76
2021/09/06 09:32:35;;;;;;;10.50;3.78;;;;;;;30.35;41.38;100963.59;5022502;28;20667;-76
2021/09/06 09:35:30;;;;;;;8.35;3.30;;;;;;;30.82;40.36;100960.56;5023234;28;20516;-76
2021/09/06 09:38:02;;;;;;;10.65;3.65;;;;;;;30.95;39.70;100956.06;5029474;28;20040;-76
2021/09/06 09:40:33;;;;;;;8.75;4.03;;;;;;;31.14;39.85;100944.81;5028342;28;20084;-76
2021/09/06 09:43:00;;;;;;;10.63;3.80;;;;;;;31.14;40.18;100956.63;5023823;28;20049;-77
2021/09/06 09:45:30;;;;;;;11.20;3.70;;;;;;;31.03;39.65;100963.75;5011799;28;20038;-77
2021/09/06 09:47:58;;;;;;;11.60;3.80;;;;;;;31.01;39.47;100952.03;4975193;28;20045;-75
2021/09/06 09:50:28;;;;;;;11.45;4.03;;;;;;;31.03;39.51;100955.56;5022923;28;20160;-77
2021/09/06 09:52:56;;;;;;;8.85;3.80;;;;;;;31.11;39.33;100961.41;5028584;28;20041;-77
2021/09/06 09:55:34;;;;;;;7.93;4.10;;;;;;;31.09;39.53;100964.25;5020744;28;20057;-76
2021/09/06 09:58:20;;;;;;;11.82;4.40;;;;;;;30.94;40.42;100967.06;5024464;28;20052;-76
2021/09/06 10:00:49;;;;;;;10.20;4.60;;;;;;;30.94;40.09;100962.50;5024238;28;20044;-75
2021/09/06 10:03:18;;;;;;;12.05;3.90;;;;;;;30.88;40.23;100949.25;5028132;28;20037;-75
2021/09/06 10:05:52;;;;;;;11.50;3.83;;;;;;;30.95;39.88;100958.78;5029855;28;20037;-76
2021/09/06 10:08:20;;;;;;;9.02;4.07;;;;;;;30.99;40.33;100967.63;5030554;28;20034;-76
2021/09/06 10:10:48;;;;;;;12.68;3.80;;;;;;;31.04;39.96;100963.66;5027572;28;20048;-75
2021/09/06 10:13:17;;;;;;;9.27;3.70;;;;;;;30.85;40.40;100968.56;5029622;28;20635;-77
2021/09/06 10:15:57;;;;;;;9.50;3.78;;;;;;;30.90;40.45;100966.41;5028991;28;20040;-76
2021/09/06 10:18:27;;;;;;;13.82;4.32;;;;;;;31.25;40.43;100964.06;5029384;28;20044;-77
2021/09/06 10:20:56;;;;;;;17.08;4.15;;;;;;;31.33;39.90;100955.38;5038585;28;20037;-77
2021/09/06 10:23:26;;;;;;;10.32;3.88;;;;;;;31.31;40.07;100963.66;5031913;28;20038;-76
2021/09/06 10:25:53;;;;;;;10.55;3.95;;;;;;;31.44;40.04;100953.66;5031062;28;20389;-77
2021/09/06 10:28:31;;;;;;;9.85;3.38;;;;;;;31.37;39.79;100960.53;5031602;28;20635;-76
2021/09/06 10:30:58;;;;;;;12.43;3.92;;;;;;;31.39;39.55;100953.09;5030065;28;20649;-76
2021/09/06 10:33:28;;;;;;;8.52;3.70;;;;;;;31.49;39.75;100942.44;5031064;28;20046;-75
2021/09/06 10:36:07;;;;;;;10.20;3.53;;;;;;;31.38;39.53;100953.19;5031771;28;20033;-77
2021/09/06 10:38:43;;;;;;;9.20;3.85;;;;;;;31.19;39.55;100964.47;5031507;28;20064;-75
2021/09/06 10:41:13;;;;;;;8.57;3.70;;;;;;;31.36;39.83;100960.63;5031159;28;20044;-76
2021/09/06 10:43:45;;;;;;;10.18;3.28;;;;;;;31.41;39.33;100956.63;5030846;28;20121;-76
2021/09/06 10:46:54;;;;;;;8.65;3.72;;;;;;;31.37;39.45;100965.13;5026503;28;20047;-76
2021/09/06 10:49:27;;;;;;;13.90;3.65;;;;;;;31.34;39.41;100968.91;5030151;28;20559;-75
2021/09/06 10:51:56;;;;;;;10.30;3.45;;;;;;;31.42;39.04;100976.59;5043829;28;20037;-75
2021/09/06 10:54:24;;;;;;;10.73;3.65;;;;;;;31.54;39.52;100968.44;5030955;28;20133;-74
2021/09/06 10:56:52;;;;;;;11.98;3.63;;;;;;;31.76;38.83;100967.00;5030233;28;20046;-74
2021/09/06 10:59:25;;;;;;;15.55;3.72;;;;;;;31.87;38.37;100948.88;5031192;28;20035;-75
2021/09/06 11:01:53;;;;;;;12.30;3.30;;;;;;;31.69;38.62;100969.28;5030570;28;20033;-75
2021/09/06 11:04:24;;;;;;;9.77;3.67;;;;;;;31.38;38.80;100975.03;5030608;28;20149;-76
2021/09/06 11:07:00;;;;;;;13.38;3.58;;;;;;;31.49;38.58;100986.13;5030784;28;20046;-74
2021/09/06 11:09:28;;;;;;;11.32;3.63;;;;;;;31.78;38.29;100978.69;5030729;28;20037;-75
2021/09/06 11:12:04;;;;;;;8.75;3.40;;;;;;;31.87;38.33;100972.59;5030256;28;20042;-76
2021/09/06 11:14:39;;;;;;;15.45;3.72;;;;;;;31.73;38.71;100984.47;5029957;28;20074;-75
2021/09/06 11:17:17;;;;;;;13.55;3.95;;;;;;;31.81;38.82;100979.34;5030487;28;20068;-75
2021/09/06 11:19:46;;;;;;;13.13;3.80;;;;;;;31.99;38.80;100978.06;5029346;28;20417;-75
2021/09/06 11:22:17;;;;;;;9.25;3.22;;;;;;;32.16;37.74;100979.66;5030945;28;20433;-76
2021/09/06 11:24:46;;;;;;;10.52;3.63;;;;;;;32.35;37.51;100977.34;5029947;28;20061;-76
2021/09/06 11:27:25;;;;;;;10.10;3.60;;;;;;;32.79;36.67;100971.41;5035160;28;20037;-75
2021/09/06 11:29:53;;;;;;;12.27;3.60;;;;;;;32.80;36.47;100975.91;5030503;28;20041;-76